createdAt,value
2024-01-28T00:02:03.434Z,4.14
2024-01-28T00:04:42.749Z,4.23
2024-01-28T00:07:27.163Z,4.18
2024-01-28T00:10:06.463Z,3.69
2024-01-28T00:12:45.811Z,3.86
2024-01-28T00:15:25.368Z,3.99
2024-01-28T00:18:04.998Z,3.85
2024-01-28T00:20:44.424Z,4.00
2024-01-28T00:23:28.793Z,4.14
2024-01-28T00:26:09.534Z,4.22
2024-01-28T00:28:49.029Z,4.07
2024-01-28T00:31:28.421Z,4.20
2024-01-28T00:34:08.309Z,4.53
2024-01-28T00:36:47.657Z,4.60
2024-01-28T00:39:32.274Z,5.06
2024-01-28T00:42:12.489Z,5.03
2024-01-28T00:44:51.768Z,4.56
2024-01-28T00:47:31.050Z,5.04
2024-01-28T00:50:10.504Z,5.02
2024-01-28T00:52:49.913Z,5.03
2024-01-28T00:55:34.329Z,5.47
2024-01-28T00:58:14.786Z,5.10
2024-01-28T01:00:54.167Z,5.15
2024-01-28T01:03:33.819Z,5.44
2024-01-28T01:06:13.893Z,5.26
2024-01-28T01:08:54.455Z,5.01
2024-01-28T01:11:38.871Z,5.17
2024-01-28T01:14:18.259Z,4.74
2024-01-28T01:16:57.547Z,4.56
2024-01-28T01:19:36.955Z,4.75
2024-01-28T01:22:16.476Z,4.83
2024-01-28T01:24:55.837Z,4.68
2024-01-28T01:27:40.282Z,4.92
2024-01-28T01:30:20.659Z,4.67
2024-01-28T01:33:00.014Z,5.05
2024-01-28T01:35:39.369Z,5.03
2024-01-28T01:38:18.688Z,5.22
2024-01-28T01:40:58.286Z,4.94
2024-01-28T01:43:42.639Z,5.36
2024-01-28T01:46:22.917Z,5.13
2024-01-28T01:49:02.800Z,5.42
2024-01-28T01:51:43.132Z,5.25
2024-01-28T01:54:22.839Z,5.33
2024-01-28T01:57:02.252Z,5.64
2024-01-28T01:59:47.556Z,5.74
2024-01-28T02:02:27.614Z,5.37
2024-01-28T02:05:07.137Z,5.58
2024-01-28T02:07:46.885Z,5.81
2024-01-28T02:10:28.012Z,6.22
2024-01-28T02:13:07.314Z,6.32
2024-01-28T02:15:51.908Z,6.44
2024-01-28T02:18:31.338Z,6.27
2024-01-28T02:21:11.230Z,6.27
2024-01-28T02:23:55.620Z,6.01
2024-01-28T02:26:35.007Z,6.10
2024-01-28T02:29:14.440Z,6.02
2024-01-28T02:31:54.170Z,5.80
2024-01-28T02:34:33.521Z,6.03
2024-01-28T02:37:12.871Z,5.79
2024-01-28T02:39:57.323Z,5.94
2024-01-28T02:42:36.753Z,6.12
2024-01-28T02:45:16.907Z,6.21
2024-01-28T02:47:56.546Z,6.33
2024-01-28T02:50:35.865Z,6.48
2024-01-28T02:53:15.198Z,6.29
2024-01-28T02:56:02.242Z,6.51
2024-01-28T02:58:41.640Z,6.00
2024-01-28T03:01:20.984Z,6.10
2024-01-28T03:04:00.445Z,6.12
2024-01-28T03:06:39.886Z,5.75
2024-01-28T03:09:19.574Z,5.73
2024-01-28T03:12:04.025Z,5.61
2024-01-28T03:14:43.355Z,5.74
2024-01-28T03:17:23.190Z,6.02
2024-01-28T03:20:02.735Z,5.86
2024-01-28T03:22:42.012Z,6.20
2024-01-28T03:25:21.452Z,6.04
2024-01-28T03:28:06.123Z,6.04
2024-01-28T03:30:45.705Z,6.10
2024-01-28T03:33:25.179Z,6.23
2024-01-28T03:36:04.880Z,6.16
2024-01-28T03:38:44.172Z,6.16
2024-01-28T03:41:24.285Z,5.95
2024-01-28T03:44:08.670Z,5.58
2024-01-28T03:46:47.958Z,5.89
2024-01-28T03:49:27.245Z,5.90
2024-01-28T03:52:06.574Z,5.73
2024-01-28T03:54:45.940Z,5.51
2024-01-28T03:57:25.522Z,5.52
2024-01-28T04:00:10.537Z,5.63
2024-01-28T04:02:49.880Z,5.32
2024-01-28T04:05:29.365Z,5.47
2024-01-28T04:08:08.716Z,5.46
2024-01-28T04:10:48.060Z,5.49
2024-01-28T04:13:27.357Z,5.63
2024-01-28T04:16:12.291Z,5.54
2024-01-28T04:18:51.776Z,5.59
2024-01-28T04:21:31.603Z,5.25
2024-01-28T04:24:11.355Z,5.74
2024-01-28T04:26:51.383Z,5.62
2024-01-28T04:29:30.656Z,5.64
2024-01-28T04:32:16.874Z,5.79
2024-01-28T04:34:56.193Z,5.29
2024-01-28T04:37:35.517Z,5.99
2024-01-28T04:40:16.046Z,5.61
2024-01-28T04:42:55.339Z,5.70
2024-01-28T04:45:34.719Z,5.41
2024-01-28T04:48:19.612Z,5.45
2024-01-28T04:50:58.967Z,5.69
2024-01-28T04:53:38.244Z,5.78
2024-01-28T04:56:18.561Z,5.64
2024-01-28T04:58:58.068Z,5.60
2024-01-28T05:01:37.979Z,5.07
2024-01-28T05:04:22.416Z,5.62
2024-01-28T05:07:01.800Z,5.36
2024-01-28T05:09:41.232Z,5.45
2024-01-28T05:12:21.014Z,5.27
2024-01-28T05:15:00.696Z,5.06
2024-01-28T05:17:39.960Z,5.42
2024-01-28T05:20:24.695Z,5.48
2024-01-28T05:23:04.726Z,5.63
2024-01-28T05:25:44.065Z,5.53
2024-01-28T05:28:23.399Z,5.54
2024-01-28T05:31:02.676Z,5.60
2024-01-28T05:33:43.416Z,5.30
2024-01-28T05:36:27.811Z,5.38
2024-01-28T05:39:07.155Z,5.40
2024-01-28T05:41:48.925Z,5.41
2024-01-28T05:44:30.066Z,5.04
2024-01-28T05:47:09.334Z,5.26
2024-01-28T05:49:48.913Z,5.50
2024-01-28T05:52:33.314Z,5.28
2024-01-28T05:55:13.278Z,5.15
2024-01-28T05:57:52.627Z,5.32
2024-01-28T06:00:32.205Z,5.35
2024-01-28T06:03:11.557Z,5.23
2024-01-28T06:05:50.978Z,5.25
2024-01-28T06:08:35.505Z,5.29
2024-01-28T06:11:14.787Z,5.42
2024-01-28T06:13:54.087Z,5.57
2024-01-28T06:16:33.351Z,5.02
2024-01-28T06:19:12.945Z,5.50
2024-01-28T06:21:53.319Z,5.60
2024-01-28T06:24:37.941Z,5.60
2024-01-28T06:27:17.257Z,5.71
2024-01-28T06:29:56.607Z,5.49
2024-01-28T06:32:35.898Z,5.65
2024-01-28T06:35:16.288Z,5.73
2024-01-28T06:37:55.760Z,5.89
2024-01-28T06:40:40.066Z,6.04
2024-01-28T06:43:19.549Z,5.86
2024-01-28T06:45:59.177Z,5.97
2024-01-28T06:48:38.761Z,5.44
2024-01-28T06:51:18.119Z,5.96
2024-01-28T06:53:59.547Z,5.69
2024-01-28T06:56:44.170Z,5.77
2024-01-28T06:59:23.493Z,5.52
2024-01-28T07:02:02.738Z,5.93
2024-01-28T07:04:42.138Z,5.90
2024-01-28T07:07:21.787Z,6.34
2024-01-28T07:10:01.265Z,5.92
2024-01-28T07:12:47.066Z,6.06
2024-01-28T07:15:26.502Z,6.20
2024-01-28T07:18:05.827Z,6.19
2024-01-28T07:20:45.256Z,6.56
2024-01-28T07:23:24.502Z,6.33
2024-01-28T07:26:03.857Z,6.53
2024-01-28T07:28:48.261Z,6.63
2024-01-28T07:31:27.732Z,5.83
2024-01-28T07:34:07.101Z,6.01
2024-01-28T07:36:47.782Z,6.29
2024-01-28T07:39:27.373Z,6.39
2024-01-28T07:42:06.729Z,6.25
2024-01-28T07:44:51.104Z,5.93
2024-01-28T07:47:30.341Z,6.38
2024-01-28T07:50:09.912Z,5.77
2024-01-28T07:52:49.285Z,5.65
2024-01-28T07:55:28.530Z,6.01
2024-01-28T07:58:07.983Z,5.77
2024-01-28T08:00:52.355Z,6.02
2024-01-28T08:03:31.755Z,6.23
2024-01-28T08:06:12.330Z,6.11
2024-01-28T08:08:51.677Z,6.49
2024-01-28T08:11:31.012Z,6.01
2024-01-28T08:14:10.541Z,6.41
2024-01-28T08:16:54.901Z,6.53
2024-01-28T08:19:34.438Z,6.04
2024-01-28T08:22:13.810Z,6.38
2024-01-28T08:24:53.313Z,6.45
2024-01-28T08:27:33.060Z,6.44
2024-01-28T08:30:13.915Z,6.55
2024-01-28T08:32:58.459Z,6.95
2024-01-28T08:35:42.586Z,6.70
2024-01-28T08:38:22.167Z,7.31
2024-01-28T08:41:01.488Z,7.12
2024-01-28T08:43:40.724Z,7.23
2024-01-28T08:46:20.073Z,7.40
2024-01-28T08:49:05.116Z,7.41
2024-01-28T08:51:44.526Z,7.70
2024-01-28T08:54:23.905Z,7.91
2024-01-28T08:57:03.171Z,7.33
2024-01-28T08:59:42.424Z,7.49
2024-01-28T09:02:21.930Z,7.82
2024-01-28T09:05:06.483Z,7.83
2024-01-28T09:07:47.717Z,7.38
2024-01-28T09:10:27.015Z,6.76
2024-01-28T09:13:06.455Z,6.88
2024-01-28T09:15:45.770Z,6.72
2024-01-28T09:18:25.138Z,7.35
2024-01-28T09:21:09.516Z,7.05
2024-01-28T09:23:48.806Z,6.48
2024-01-28T09:26:28.081Z,6.68
2024-01-28T09:29:07.420Z,6.13
2024-01-28T09:31:46.815Z,6.31
2024-01-28T09:34:26.483Z,6.05
2024-01-28T09:37:11.136Z,4.91
2024-01-28T09:39:50.564Z,3.70
2024-01-28T09:42:32.117Z,3.63
2024-01-28T09:45:12.383Z,4.00
2024-01-28T09:47:52.979Z,4.54
2024-01-28T09:50:35.337Z,4.22
2024-01-28T09:53:21.112Z,4.31
2024-01-28T09:56:01.515Z,3.87
2024-01-28T09:58:41.753Z,8.58
2024-01-28T10:01:21.270Z,3.92
2024-01-28T10:04:02.788Z,4.20
2024-01-28T10:06:42.184Z,5.58
2024-01-28T10:09:26.904Z,4.18
2024-01-28T10:12:06.922Z,5.35
2024-01-28T10:14:46.259Z,3.30
2024-01-28T10:17:25.566Z,3.47
2024-01-28T10:20:09.661Z,5.72
2024-01-28T10:22:48.963Z,4.58
2024-01-28T10:25:33.781Z,3.80
2024-01-28T10:28:13.908Z,2.87
2024-01-28T10:30:56.978Z,2.68
2024-01-28T10:33:36.418Z,2.74
2024-01-28T10:36:17.874Z,2.70
2024-01-28T10:38:59.975Z,2.56
2024-01-28T10:41:52.244Z,2.71
2024-01-28T10:44:32.503Z,2.75
2024-01-28T10:47:11.981Z,2.77
2024-01-28T10:49:54.449Z,2.39
2024-01-28T10:52:34.824Z,2.49
2024-01-28T10:55:15.151Z,3.30
2024-01-28T10:58:01.860Z,5.40
2024-01-28T11:00:43.333Z,2.96
2024-01-28T11:03:23.471Z,2.48
2024-01-28T11:06:03.102Z,2.20
2024-01-28T11:08:43.545Z,2.28
2024-01-28T11:11:22.956Z,2.30
2024-01-28T11:14:15.302Z,2.21
2024-01-28T11:16:55.172Z,2.16
2024-01-28T11:19:35.951Z,2.04
2024-01-28T11:22:22.529Z,2.21
2024-01-28T11:25:02.049Z,2.32
2024-01-28T11:27:41.526Z,2.19
2024-01-28T11:30:28.520Z,2.10
2024-01-28T11:33:18.143Z,2.12
2024-01-28T11:35:59.874Z,2.08
2024-01-28T11:38:49.922Z,1.96
2024-01-28T11:41:33.533Z,1.94
2024-01-28T11:44:15.892Z,1.97
2024-01-28T11:47:00.744Z,1.92
2024-01-28T11:49:40.268Z,1.95
2024-01-28T11:52:19.770Z,2.12
2024-01-28T11:55:00.746Z,2.11
2024-01-28T11:57:40.108Z,2.04
2024-01-28T12:00:21.301Z,2.05
2024-01-28T12:03:06.073Z,1.93
2024-01-28T12:05:45.372Z,1.92
2024-01-28T12:08:33.547Z,1.94
2024-01-28T12:11:12.987Z,1.77
2024-01-28T12:13:52.508Z,1.90
2024-01-28T12:16:32.842Z,2.00
2024-01-28T12:19:20.848Z,1.85
2024-01-28T12:22:00.262Z,2.26
2024-01-28T12:24:40.822Z,1.87
2024-01-28T12:27:21.477Z,1.79
2024-01-28T12:30:01.859Z,2.03
2024-01-28T12:32:41.535Z,1.81
2024-01-28T12:35:25.986Z,2.08
2024-01-28T12:38:05.249Z,1.86
2024-01-28T12:40:44.583Z,1.97
2024-01-28T12:43:24.056Z,1.85
2024-01-28T12:46:03.652Z,1.76
2024-01-28T12:48:43.068Z,1.88
2024-01-28T12:51:27.495Z,1.75
2024-01-28T12:54:07.092Z,1.88
2024-01-28T12:56:46.385Z,1.89
2024-01-28T12:59:25.722Z,1.89
2024-01-28T13:02:06.445Z,1.77
2024-01-28T13:04:46.061Z,1.96
2024-01-28T13:07:30.447Z,1.67
2024-01-28T13:10:09.693Z,1.85
2024-01-28T13:12:49.045Z,1.83
2024-01-28T13:15:29.002Z,1.66
2024-01-28T13:18:20.808Z,1.85
2024-01-28T13:21:08.927Z,1.65
2024-01-28T13:23:53.276Z,1.80
2024-01-28T13:26:32.703Z,1.73
2024-01-28T13:29:12.045Z,1.79
2024-01-28T13:31:51.407Z,1.73
2024-01-28T13:34:31.362Z,1.78
2024-01-28T13:37:11.431Z,1.83
2024-01-28T13:39:56.175Z,1.60
2024-01-28T13:42:35.469Z,1.82
2024-01-28T13:45:16.281Z,1.70
2024-01-28T13:47:55.780Z,1.81
2024-01-28T13:50:35.227Z,1.81
2024-01-28T13:53:14.871Z,2.00
2024-01-28T13:55:59.271Z,1.62
2024-01-28T13:58:38.713Z,1.56
2024-01-28T14:01:18.041Z,1.71
2024-01-28T14:03:57.446Z,1.71
2024-01-28T14:06:37.380Z,1.76
2024-01-28T14:09:19.201Z,1.49
2024-01-28T14:12:03.589Z,1.63
2024-01-28T14:14:42.824Z,1.55
2024-01-28T14:17:22.770Z,1.51
2024-01-28T14:20:02.072Z,2.02
2024-01-28T14:22:41.403Z,1.99
2024-01-28T14:25:21.506Z,1.60
2024-01-28T14:28:06.428Z,1.61
2024-01-28T14:30:45.888Z,2.53
2024-01-28T14:33:25.452Z,2.61
2024-01-28T14:36:05.288Z,2.06
2024-01-28T14:38:44.704Z,1.61
2024-01-28T14:41:23.996Z,1.69
2024-01-28T14:44:08.361Z,1.41
2024-01-28T14:46:48.160Z,1.60
2024-01-28T14:49:28.646Z,1.60
2024-01-28T14:52:08.072Z,2.01
2024-01-28T14:54:47.344Z,1.80
2024-01-28T14:57:27.797Z,1.63
2024-01-28T15:00:13.595Z,1.95
2024-01-28T15:02:52.880Z,1.90
2024-01-28T15:05:32.169Z,1.93
2024-01-28T15:08:12.662Z,1.82
2024-01-28T15:10:51.978Z,1.84
2024-01-28T15:13:31.312Z,1.61
2024-01-28T15:16:16.093Z,1.24
2024-01-28T15:18:55.506Z,1.41
2024-01-28T15:21:34.885Z,1.68
2024-01-28T15:24:14.603Z,1.51
2024-01-28T15:26:53.926Z,1.30
2024-01-28T15:29:33.355Z,1.58
2024-01-28T15:32:17.962Z,1.47
2024-01-28T15:34:57.891Z,1.90
2024-01-28T15:37:37.439Z,1.99
2024-01-28T15:40:18.184Z,1.93
2024-01-28T15:42:57.532Z,2.01
2024-01-28T15:45:36.833Z,1.81
2024-01-28T15:48:21.595Z,1.64
2024-01-28T15:51:04.144Z,1.42
2024-01-28T15:53:43.723Z,1.64
2024-01-28T15:56:25.151Z,1.55
2024-01-28T15:59:04.504Z,1.57
2024-01-28T16:01:43.858Z,1.62
2024-01-28T16:04:28.184Z,1.59
2024-01-28T16:07:07.633Z,1.67
2024-01-28T16:09:52.163Z,1.59
2024-01-28T16:12:32.310Z,1.76
2024-01-28T16:15:12.574Z,1.76
2024-01-28T16:17:52.582Z,2.84
2024-01-28T16:20:36.943Z,2.81
2024-01-28T16:23:16.240Z,1.88
2024-01-28T16:25:55.701Z,1.62
2024-01-28T16:28:35.321Z,1.64
2024-01-28T16:31:14.628Z,1.60
2024-01-28T16:33:54.183Z,1.85
2024-01-28T16:36:38.723Z,1.80
2024-01-28T16:39:18.073Z,2.09
2024-01-28T16:41:57.398Z,1.92
2024-01-28T16:44:36.696Z,1.66
2024-01-28T16:47:16.944Z,1.94
2024-01-28T16:49:56.261Z,1.62
2024-01-28T16:52:40.881Z,1.70
2024-01-28T16:55:21.202Z,1.95
2024-01-28T16:58:02.322Z,1.69
2024-01-28T17:00:41.812Z,1.82
2024-01-28T17:03:22.771Z,1.58
2024-01-28T17:06:02.171Z,1.81
2024-01-28T17:08:46.588Z,1.97
2024-01-28T17:11:26.202Z,2.12
2024-01-28T17:14:05.777Z,1.64
2024-01-28T17:16:45.152Z,1.90
2024-01-28T17:19:24.477Z,1.69
2024-01-28T17:22:03.776Z,1.68
2024-01-28T17:24:48.157Z,2.13
2024-01-28T17:27:27.463Z,1.83
2024-01-28T17:30:07.355Z,2.02
2024-01-28T17:32:46.652Z,2.22
2024-01-28T17:35:26.045Z,2.28
2024-01-28T17:38:05.585Z,2.78
2024-01-28T17:40:50.005Z,2.39
2024-01-28T17:43:31.332Z,2.61
2024-01-28T17:46:10.717Z,2.69
2024-01-28T17:48:50.292Z,3.11
2024-01-28T17:51:29.748Z,3.05
2024-01-28T17:54:09.059Z,3.09
2024-01-28T17:56:53.553Z,2.88
2024-01-28T17:59:32.800Z,3.54
2024-01-28T18:02:12.444Z,3.89
2024-01-28T18:04:52.302Z,3.99
2024-01-28T18:07:31.886Z,4.12
2024-01-28T18:10:11.870Z,4.70
2024-01-28T18:12:56.354Z,3.54
2024-01-28T18:15:35.796Z,2.82
2024-01-28T18:18:15.622Z,3.70
2024-01-28T18:20:54.916Z,3.65
2024-01-28T18:23:34.202Z,3.70
2024-01-28T18:26:14.712Z,3.69
2024-01-28T18:28:59.065Z,3.73
2024-01-28T18:31:38.402Z,3.69
2024-01-28T18:34:17.792Z,3.54
2024-01-28T18:36:57.300Z,3.65
2024-01-28T18:39:36.612Z,3.94
2024-01-28T18:42:15.947Z,3.72
2024-01-28T18:45:00.368Z,3.53
2024-01-28T18:47:39.636Z,3.55
2024-01-28T18:50:19.481Z,3.36
2024-01-28T18:52:59.545Z,3.55
2024-01-28T18:55:39.237Z,3.51
2024-01-28T18:58:18.831Z,3.52
2024-01-28T19:01:03.307Z,3.06
2024-01-28T19:03:42.713Z,3.27
2024-01-28T19:06:22.474Z,2.98
2024-01-28T19:09:02.611Z,3.50
2024-01-28T19:11:42.324Z,3.40
2024-01-28T19:14:21.735Z,3.46
2024-01-28T19:17:06.114Z,3.69
2024-01-28T19:19:45.570Z,3.85
2024-01-28T19:22:24.893Z,4.05
2024-01-28T19:25:04.364Z,3.75
2024-01-28T19:27:43.720Z,3.94
2024-01-28T19:30:23.161Z,4.35
2024-01-28T19:33:07.958Z,4.21
2024-01-28T19:35:53.094Z,3.98
2024-01-28T19:38:32.332Z,4.31
2024-01-28T19:41:11.955Z,4.15
2024-01-28T19:43:51.815Z,4.67
2024-01-28T19:46:31.633Z,4.36
2024-01-28T19:49:16.186Z,4.42
2024-01-28T19:51:55.594Z,4.31
2024-01-28T19:54:36.375Z,4.13
2024-01-28T19:57:16.517Z,4.56
2024-01-28T19:59:55.840Z,4.32
2024-01-28T20:02:35.152Z,5.03
2024-01-28T20:05:19.868Z,4.66
2024-01-28T20:07:59.180Z,4.37
2024-01-28T20:10:38.505Z,4.19
2024-01-28T20:13:17.915Z,4.35
2024-01-28T20:15:57.392Z,4.61
2024-01-28T20:18:36.762Z,4.63
2024-01-28T20:21:21.199Z,4.59
2024-01-28T20:24:00.527Z,4.73
2024-01-28T20:26:39.799Z,4.98
2024-01-28T20:29:19.078Z,4.73
2024-01-28T20:31:58.734Z,4.61
2024-01-28T20:34:38.127Z,5.00
2024-01-28T20:37:23.484Z,4.72
2024-01-28T20:40:02.993Z,5.30
2024-01-28T20:42:42.423Z,5.32
2024-01-28T20:45:23.890Z,4.58
2024-01-28T20:48:03.212Z,4.73
2024-01-28T20:50:42.563Z,4.69
2024-01-28T20:53:26.892Z,4.55
2024-01-28T20:56:10.467Z,4.87
2024-01-28T20:58:49.759Z,4.58
2024-01-28T21:01:29.145Z,4.90
2024-01-28T21:04:08.593Z,5.18
2024-01-28T21:06:47.887Z,5.08
2024-01-28T21:09:32.611Z,4.53
2024-01-28T21:12:12.732Z,4.23
2024-01-28T21:14:52.053Z,4.17
2024-01-28T21:17:34.868Z,4.17
2024-01-28T21:20:15.267Z,4.26
2024-01-28T21:22:55.411Z,4.10
2024-01-28T21:25:39.747Z,4.19
2024-01-28T21:28:19.036Z,4.07
2024-01-28T21:30:58.333Z,3.98
2024-01-28T21:33:37.730Z,4.28
2024-01-28T21:36:17.113Z,4.54
2024-01-28T21:38:56.432Z,4.94
2024-01-28T21:41:41.554Z,4.50
2024-01-28T21:44:20.992Z,4.78
2024-01-28T21:47:00.598Z,4.57
2024-01-28T21:49:40.416Z,4.50
2024-01-28T21:52:19.790Z,4.59
2024-01-28T21:54:59.300Z,5.20
2024-01-28T21:57:44.705Z,4.82
2024-01-28T22:00:25.112Z,4.86
2024-01-28T22:03:04.401Z,4.80
2024-01-28T22:05:43.726Z,5.11
2024-01-28T22:08:23.070Z,5.00
2024-01-28T22:11:02.403Z,4.88
2024-01-28T22:13:46.815Z,5.22
2024-01-28T22:16:26.261Z,5.29
2024-01-28T22:19:06.312Z,5.27
2024-01-28T22:21:45.684Z,5.34
2024-01-28T22:24:25.124Z,5.20
2024-01-28T22:27:04.460Z,5.16
2024-01-28T22:29:48.865Z,4.83
2024-01-28T22:32:28.895Z,4.79
2024-01-28T22:35:09.118Z,4.73
2024-01-28T22:37:48.434Z,5.20
2024-01-28T22:40:27.732Z,4.68
2024-01-28T22:43:07.111Z,4.86
2024-01-28T22:45:51.570Z,4.72
2024-01-28T22:48:31.540Z,4.56
2024-01-28T22:51:11.090Z,4.75
2024-01-28T22:53:51.153Z,5.03
2024-01-28T22:56:30.477Z,4.85
2024-01-28T22:59:09.733Z,4.86
2024-01-28T23:01:56.762Z,4.92
2024-01-28T23:04:36.254Z,4.53
2024-01-28T23:07:15.586Z,4.79
2024-01-28T23:09:54.956Z,4.90
2024-01-28T23:12:34.291Z,4.98
2024-01-28T23:15:21.002Z,5.23
2024-01-28T23:18:07.464Z,5.16
2024-01-28T23:20:46.883Z,4.91
2024-01-28T23:23:26.197Z,4.79
2024-01-28T23:26:05.429Z,4.86
2024-01-28T23:28:44.717Z,5.00
2024-01-28T23:31:24.660Z,5.02
2024-01-28T23:34:10.628Z,5.07
2024-01-28T23:36:50.154Z,4.80
2024-01-28T23:39:29.538Z,4.88
2024-01-28T23:42:08.901Z,4.74
2024-01-28T23:44:48.151Z,4.65
2024-01-28T23:47:27.442Z,4.97
2024-01-28T23:50:12.996Z,4.98
2024-01-28T23:52:52.959Z,5.01
2024-01-28T23:55:32.205Z,5.09
2024-01-28T23:58:11.776Z,4.64
